Terminal Aerodrome Forecast
Issued by NWS

Home | Current Version | Previous Version | Graphics & Text | Print | Product List | Glossary On
Versions: 1 2 3 4 5 6 7 8 9 10 11 12 13 14 15 16 17 18 19 20 21 22 23 24 25
000
FTUS43 KGRB 250500
TAFMTW
TAF
KMTW 250520Z 2506/2606 22007KT 5SM BR SCT009 OVC015
      TEMPO 2507/2510 2SM BR OVC009
     FM251000 28009KT P6SM SCT012 WS017/30035KT
     FM251500 28015G24KT P6SM SKC
     FM252300 28009KT P6SM SKC=

USA.gov is the U.S. government's official web portal to all federal, state and local government web resources and services.